Fultondale, Alabama
Current Conditions -  °F | °C
As of 12:53 PM on Monday 20 Oct 2014 (Local Time) from KBHM Reporting Station
Few Clouds Few Clouds  
Wind Chill: 71°   Ceiling: Unl
Heat Index: 71°   Visibility: 10mi
Dew Point: 46°   Wind: 5mph
Humidity: 41%   Direction: NA
Pressure: 30.08"   Gusts: NA
Location:  33.61°N, 86.8°W
Report Text: KBHM 201753Z VRB04KT 10SM FEW055 FEW250 22/08 A3008 RMK AO2 SLP180 T02170078 10222 20083 58017
Loading
Personal Weather Stations






























Interactive Weather Map
Tropical Storm Tracking
New forecast layout! Learn more

10-Day Weather Forecast

Advertisements
Track Severe Weather on mobile